createdAt,value
2019-03-22T00:03:20.583Z,19.92
2019-03-22T00:05:49.433Z,23.20
2019-03-22T00:08:18.230Z,19.40
2019-03-22T00:10:47.720Z,20.08
2019-03-22T00:13:16.562Z,23.23
2019-03-22T00:15:46.044Z,22.30
2019-03-22T00:18:15.506Z,26.27
2019-03-22T00:20:44.407Z,24.87
2019-03-22T00:23:13.278Z,24.40
2019-03-22T00:25:42.639Z,23.98
2019-03-22T00:28:11.479Z,23.57
2019-03-22T00:30:40.923Z,28.80
2019-03-22T00:33:10.531Z,25.50
2019-03-22T00:35:40.016Z,22.70
2019-03-22T00:38:09.549Z,19.35
2019-03-22T00:40:39.001Z,19.75
2019-03-22T00:43:07.935Z,18.87
2019-03-22T00:45:37.605Z,17.87
2019-03-22T00:48:07.092Z,16.93
2019-03-22T00:50:36.502Z,16.77
2019-03-22T00:53:05.976Z,20.80
2019-03-22T00:55:38.183Z,18.45
2019-03-22T00:58:07.127Z,16.03
2019-03-22T01:00:36.502Z,18.65
2019-03-22T01:03:06.043Z,18.75
2019-03-22T01:05:35.596Z,15.78
2019-03-22T01:08:05.094Z,18.27
2019-03-22T01:10:34.554Z,17.95
2019-03-22T01:13:03.425Z,15.23
2019-03-22T01:15:32.981Z,17.82
2019-03-22T01:18:01.887Z,15.37
2019-03-22T01:20:31.348Z,15.80
2019-03-22T01:23:00.276Z,14.63
2019-03-22T01:25:29.870Z,17.07
2019-03-22T01:27:59.458Z,17.62
2019-03-22T01:30:28.921Z,15.63
2019-03-22T01:32:57.782Z,16.93
2019-03-22T01:35:27.249Z,18.00
2019-03-22T01:37:56.755Z,18.20
2019-03-22T01:40:26.297Z,16.20
2019-03-22T01:42:55.868Z,16.50
2019-03-22T01:45:25.693Z,17.10
2019-03-22T01:47:55.252Z,16.00
2019-03-22T01:50:24.719Z,17.87
2019-03-22T01:52:54.177Z,17.07
2019-03-22T01:55:23.596Z,19.02
2019-03-22T01:57:54.081Z,18.10
2019-03-22T02:00:23.655Z,18.90
2019-03-22T02:02:53.138Z,23.22
2019-03-22T02:05:22.602Z,21.37
2019-03-22T02:07:52.105Z,19.02
2019-03-22T02:10:21.658Z,19.37
2019-03-22T02:12:51.068Z,21.23
2019-03-22T02:15:20.525Z,17.67
2019-03-22T02:17:50.004Z,18.98
2019-03-22T02:20:19.600Z,18.95
2019-03-22T02:22:49.055Z,19.05
2019-03-22T02:25:18.635Z,21.07
2019-03-22T02:27:48.125Z,22.62
2019-03-22T02:30:18.362Z,35.80
2019-03-22T02:32:47.873Z,27.40
2019-03-22T02:35:28.505Z,28.23
2019-03-22T02:37:48.506Z,23.02
2019-03-22T02:40:18.031Z,20.05
2019-03-22T02:42:47.494Z,23.05
2019-03-22T02:45:17.384Z,17.87
2019-03-22T02:47:46.856Z,19.80
2019-03-22T02:50:19.440Z,19.87
2019-03-22T02:52:47.550Z,17.73
2019-03-22T02:55:17.026Z,21.80
2019-03-22T02:57:46.551Z,22.52
2019-03-22T03:00:17.574Z,21.00
2019-03-22T03:02:47.115Z,23.80
2019-03-22T03:05:16.677Z,24.35
2019-03-22T03:07:46.056Z,21.57
2019-03-22T03:10:16.607Z,16.95
2019-03-22T03:12:46.116Z,19.05
2019-03-22T03:15:17.103Z,27.10
2019-03-22T03:17:46.506Z,19.10
2019-03-22T03:20:17.942Z,17.15
2019-03-22T03:22:47.462Z,19.55
2019-03-22T03:25:17.585Z,17.55
2019-03-22T03:27:46.499Z,18.10
2019-03-22T03:30:18.994Z,19.27
2019-03-22T03:32:48.561Z,23.95
2019-03-22T03:35:18.274Z,24.50
2019-03-22T03:37:47.211Z,21.43
2019-03-22T03:40:16.412Z,21.97
2019-03-22T03:42:45.351Z,23.30
2019-03-22T03:45:34.943Z,21.77
2019-03-22T03:48:05.411Z,21.20
2019-03-22T03:50:34.254Z,24.37
2019-03-22T03:53:03.190Z,28.07
2019-03-22T03:55:32.201Z,29.43
2019-03-22T03:58:01.175Z,27.17
2019-03-22T04:00:30.071Z,34.03
2019-03-22T04:02:59.662Z,28.12
2019-03-22T04:05:28.532Z,26.43
2019-03-22T04:07:57.470Z,22.60
2019-03-22T04:10:26.332Z,23.20
2019-03-22T04:12:55.158Z,19.03
2019-03-22T04:15:24.003Z,21.67
2019-03-22T04:17:52.856Z,17.40
2019-03-22T04:20:21.635Z,30.23
2019-03-22T04:22:50.492Z,31.03
2019-03-22T04:25:19.352Z,36.90
2019-03-22T04:27:48.268Z,22.87
2019-03-22T04:30:17.171Z,27.23
2019-03-22T04:32:46.639Z,21.42
2019-03-22T04:35:15.550Z,25.50
2019-03-22T04:37:44.373Z,27.70
2019-03-22T04:40:24.991Z,18.50
2019-03-22T04:42:54.034Z,20.40
2019-03-22T04:45:26.401Z,27.20
2019-03-22T04:47:58.772Z,20.00
2019-03-22T04:50:29.352Z,20.35
2019-03-22T04:52:59.389Z,20.00
2019-03-22T04:55:30.947Z,18.53
2019-03-22T04:58:00.174Z,15.87
2019-03-22T05:00:30.261Z,16.45
2019-03-22T05:03:00.141Z,22.75
2019-03-22T05:05:29.795Z,18.95
2019-03-22T05:07:59.344Z,17.60
2019-03-22T05:10:29.368Z,19.10
2019-03-22T05:13:01.328Z,15.73
2019-03-22T05:15:32.815Z,17.85
2019-03-22T05:18:03.330Z,22.77
2019-03-22T05:20:34.472Z,31.85
2019-03-22T05:23:05.533Z,19.92
2019-03-22T05:25:36.551Z,20.08
2019-03-22T05:28:08.113Z,18.95
2019-03-22T05:30:57.170Z,29.37
2019-03-22T05:33:26.673Z,20.02
2019-03-22T05:35:56.107Z,24.52
2019-03-22T05:38:25.566Z,21.68
2019-03-22T05:40:55.148Z,23.05
2019-03-22T05:43:24.612Z,25.50
2019-03-22T05:45:53.985Z,26.33
2019-03-22T05:48:23.427Z,23.12
2019-03-22T05:50:52.887Z,25.62
2019-03-22T05:53:22.385Z,36.90
2019-03-22T05:55:51.840Z,36.15
2019-03-22T05:58:21.387Z,26.82
2019-03-22T06:00:50.766Z,25.40
2019-03-22T06:03:20.236Z,26.95
2019-03-22T06:05:49.673Z,28.27
2019-03-22T06:08:19.150Z,20.80
2019-03-22T06:10:48.588Z,20.05
2019-03-22T06:13:17.978Z,19.10
2019-03-22T06:15:47.435Z,19.77
2019-03-22T06:18:16.884Z,10.85
2019-03-22T06:20:46.343Z,15.72
2019-03-22T06:23:15.792Z,12.37
2019-03-22T06:25:45.351Z,22.73
2019-03-22T06:28:14.912Z,13.32
2019-03-22T06:30:44.388Z,20.85
2019-03-22T06:33:13.851Z,17.35
2019-03-22T06:35:43.363Z,13.72
2019-03-22T06:38:12.937Z,13.62
2019-03-22T06:40:42.392Z,16.40
2019-03-22T06:43:11.884Z,13.68
2019-03-22T06:45:41.255Z,16.80
2019-03-22T06:48:10.678Z,19.15
2019-03-22T06:50:40.119Z,17.20
2019-03-22T06:53:09.617Z,22.20
2019-03-22T06:55:39.056Z,19.80
2019-03-22T06:58:08.434Z,20.48
2019-03-22T07:00:37.842Z,17.27
2019-03-22T07:03:07.303Z,21.52
2019-03-22T07:05:36.915Z,21.27
2019-03-22T07:08:06.422Z,20.02
2019-03-22T07:10:35.882Z,28.02
2019-03-22T07:13:05.339Z,26.73
2019-03-22T07:15:34.833Z,21.95
2019-03-22T07:18:04.230Z,21.33
2019-03-22T07:20:33.606Z,21.23
2019-03-22T07:23:02.995Z,23.27
2019-03-22T07:25:32.502Z,18.10
2019-03-22T07:28:01.857Z,22.75
2019-03-22T07:30:31.306Z,22.65
2019-03-22T07:33:00.716Z,24.02
2019-03-22T07:35:30.170Z,25.05
2019-03-22T07:37:59.627Z,52.10
2019-03-22T07:40:29.081Z,20.20
2019-03-22T07:42:58.556Z,36.73
2019-03-22T07:45:28.094Z,23.25
2019-03-22T07:47:57.597Z,22.67
2019-03-22T07:50:27.041Z,20.80
2019-03-22T07:52:56.501Z,22.32
2019-03-22T07:55:25.959Z,25.72
2019-03-22T07:57:55.387Z,31.05
2019-03-22T08:00:30.791Z,29.12
2019-03-22T08:02:56.072Z,25.55
2019-03-22T08:05:25.446Z,26.23
2019-03-22T08:07:56.161Z,25.32
2019-03-22T08:10:25.837Z,24.05
2019-03-22T08:12:55.428Z,25.68
2019-03-22T08:15:29.706Z,26.48
2019-03-22T08:17:59.436Z,26.57
2019-03-22T08:20:29.468Z,28.17
2019-03-22T08:22:58.890Z,23.00
2019-03-22T08:25:28.352Z,22.27
2019-03-22T08:27:57.741Z,25.20
2019-03-22T08:30:27.216Z,22.55
2019-03-22T08:32:56.805Z,25.05
2019-03-22T08:35:26.330Z,26.48
2019-03-22T08:37:55.872Z,31.68
2019-03-22T08:40:25.243Z,28.90
2019-03-22T08:42:54.747Z,26.35
2019-03-22T08:45:24.251Z,26.95
2019-03-22T08:47:53.739Z,28.73
2019-03-22T08:50:23.217Z,28.15
2019-03-22T08:52:52.697Z,25.43
2019-03-22T08:55:22.114Z,25.40
2019-03-22T08:57:51.633Z,22.93
2019-03-22T09:00:21.053Z,51.92
2019-03-22T09:02:50.487Z,58.35
2019-03-22T09:05:19.923Z,109.97
2019-03-22T09:07:49.386Z,34.00
2019-03-22T09:10:18.871Z,23.90
2019-03-22T09:12:48.496Z,21.48
2019-03-22T09:15:17.868Z,27.75
2019-03-22T09:17:47.380Z,24.65
2019-03-22T09:20:16.919Z,28.80
2019-03-22T09:22:46.404Z,29.70
2019-03-22T09:25:15.933Z,23.60
2019-03-22T09:27:45.363Z,29.57
2019-03-22T09:30:15.421Z,25.02
2019-03-22T09:32:44.851Z,27.13
2019-03-22T09:35:14.388Z,31.73
2019-03-22T09:37:43.824Z,24.43
2019-03-22T09:40:13.399Z,32.23
2019-03-22T09:42:42.775Z,21.95
2019-03-22T09:45:14.327Z,27.77
2019-03-22T09:47:44.081Z,24.67
2019-03-22T09:50:14.387Z,27.30
2019-03-22T09:52:43.848Z,33.08
2019-03-22T09:55:14.551Z,26.42
2019-03-22T09:57:44.284Z,31.02
2019-03-22T10:00:30.797Z,28.38
2019-03-22T10:03:00.656Z,33.50
2019-03-22T10:05:30.191Z,27.87
2019-03-22T10:07:59.669Z,26.57
2019-03-22T10:10:29.126Z,28.05
2019-03-22T10:12:58.618Z,24.40
2019-03-22T10:15:28.188Z,28.23
2019-03-22T10:17:57.763Z,20.80
2019-03-22T10:20:27.252Z,18.40
2019-03-22T10:22:56.701Z,19.65
2019-03-22T10:25:26.221Z,20.35
2019-03-22T10:27:55.711Z,18.77
2019-03-22T10:30:25.203Z,25.43
2019-03-22T10:32:54.711Z,18.45
2019-03-22T10:35:26.447Z,17.55
2019-03-22T10:38:00.387Z,20.43
2019-03-22T10:40:26.564Z,18.87
2019-03-22T10:42:56.176Z,20.62
2019-03-22T10:45:25.658Z,21.50
2019-03-22T10:47:55.207Z,21.65
2019-03-22T10:50:24.731Z,24.12
2019-03-22T10:52:54.245Z,21.50
2019-03-22T10:55:30.389Z,19.98
2019-03-22T10:57:55.614Z,17.25
2019-03-22T11:00:25.174Z,19.73
2019-03-22T11:02:54.613Z,20.62
2019-03-22T11:05:24.181Z,17.90
2019-03-22T11:07:53.584Z,16.85
2019-03-22T11:10:23.078Z,17.48
2019-03-22T11:12:52.552Z,16.23
2019-03-22T11:15:23.907Z,17.17
2019-03-22T11:17:53.311Z,16.77
2019-03-22T11:20:22.806Z,18.67
2019-03-22T11:22:52.263Z,16.30
2019-03-22T11:25:21.756Z,17.10
2019-03-22T11:27:51.238Z,16.85
2019-03-22T11:30:20.721Z,18.48
2019-03-22T11:32:50.150Z,17.48
2019-03-22T11:35:19.607Z,13.03
2019-03-22T11:37:49.071Z,15.93
2019-03-22T11:40:18.637Z,13.80
2019-03-22T11:42:47.983Z,17.40
2019-03-22T11:45:20.511Z,13.58
2019-03-22T11:47:49.966Z,13.13
2019-03-22T11:50:19.119Z,11.70
2019-03-22T11:52:48.601Z,11.70
2019-03-22T11:55:18.906Z,12.53
2019-03-22T11:57:48.343Z,15.78
2019-03-22T12:00:23.018Z,12.80
2019-03-22T12:02:52.782Z,14.05
2019-03-22T12:05:22.998Z,13.05
2019-03-22T12:07:52.374Z,16.52
2019-03-22T12:10:22.637Z,15.32
2019-03-22T12:12:52.009Z,10.65
2019-03-22T12:15:22.896Z,12.53
2019-03-22T12:17:52.550Z,15.28
2019-03-22T12:20:23.856Z,13.78
2019-03-22T12:22:53.288Z,14.68
2019-03-22T12:25:24.395Z,15.55
2019-03-22T12:27:53.911Z,13.93
2019-03-22T12:30:23.427Z,19.35
2019-03-22T12:32:52.815Z,14.00
2019-03-22T12:35:22.781Z,14.00
2019-03-22T12:37:52.203Z,13.58
2019-03-22T12:40:22.855Z,11.95
2019-03-22T12:42:52.323Z,11.40
2019-03-22T12:45:29.411Z,13.90
2019-03-22T12:47:58.910Z,13.98
2019-03-22T12:50:28.595Z,21.57
2019-03-22T12:52:58.026Z,11.83
2019-03-22T12:55:27.517Z,11.48
2019-03-22T12:57:56.998Z,12.47
2019-03-22T13:00:27.057Z,20.97
2019-03-22T13:02:56.659Z,12.10
2019-03-22T13:05:26.130Z,10.82
2019-03-22T13:07:55.623Z,26.75
2019-03-22T13:10:27.136Z,13.18
2019-03-22T13:12:56.689Z,18.65
2019-03-22T13:15:26.135Z,12.53
2019-03-22T13:17:55.596Z,10.70
2019-03-22T13:20:25.098Z,10.95
2019-03-22T13:22:54.558Z,21.48
2019-03-22T13:25:24.038Z,10.10
2019-03-22T13:27:53.581Z,10.98
2019-03-22T13:30:33.779Z,10.95
2019-03-22T13:33:03.307Z,10.93
2019-03-22T13:35:32.855Z,10.08
2019-03-22T13:38:02.498Z,24.12
2019-03-22T13:40:31.981Z,9.48
2019-03-22T13:43:01.441Z,9.10
2019-03-22T13:45:30.905Z,12.10
2019-03-22T13:48:00.344Z,11.10
2019-03-22T13:50:29.813Z,11.12
2019-03-22T13:52:59.271Z,10.82
2019-03-22T13:55:28.766Z,10.68
2019-03-22T13:57:58.267Z,24.23
2019-03-22T14:00:27.721Z,15.40
2019-03-22T14:03:03.115Z,11.18
2019-03-22T14:05:28.411Z,9.63
2019-03-22T14:07:57.920Z,9.85
2019-03-22T14:10:32.204Z,10.45
2019-03-22T14:13:03.041Z,10.20
2019-03-22T14:15:32.485Z,12.37
2019-03-22T14:18:02.046Z,13.58
2019-03-22T14:20:31.698Z,12.93
2019-03-22T14:23:00.853Z,13.97
2019-03-22T14:25:30.352Z,12.30
2019-03-22T14:27:59.896Z,12.75
2019-03-22T14:30:29.371Z,9.78
2019-03-22T14:32:58.807Z,10.53
2019-03-22T14:35:28.594Z,18.92
2019-03-22T14:37:58.218Z,13.95
2019-03-22T14:40:27.798Z,9.43
2019-03-22T14:42:57.299Z,22.85
2019-03-22T14:45:26.969Z,10.18
2019-03-22T14:47:56.415Z,18.02
2019-03-22T14:50:25.870Z,16.32
2019-03-22T14:52:55.382Z,12.47
2019-03-22T14:55:24.927Z,22.77
2019-03-22T14:57:54.350Z,43.10
2019-03-22T15:00:23.899Z,19.87
2019-03-22T15:02:53.346Z,12.53
2019-03-22T15:05:22.799Z,13.65
2019-03-22T15:07:52.265Z,13.32
2019-03-22T15:10:21.750Z,12.33
2019-03-22T15:12:51.530Z,17.85
2019-03-22T15:15:25.373Z,15.03
2019-03-22T15:18:02.197Z,14.03
2019-03-22T15:20:33.282Z,24.40
2019-03-22T15:23:10.776Z,12.65
2019-03-22T15:26:00.021Z,17.07
2019-03-22T15:28:31.083Z,14.55
2019-03-22T15:31:11.240Z,14.18
2019-03-22T15:33:42.460Z,46.23
2019-03-22T15:39:02.750Z,18.67
2019-03-22T15:41:32.316Z,20.82
2019-03-22T15:44:01.736Z,21.55
2019-03-22T15:46:31.217Z,25.82
2019-03-22T15:49:00.739Z,23.73
2019-03-22T15:51:30.228Z,23.20
2019-03-22T15:53:59.732Z,24.45
2019-03-22T15:56:29.217Z,32.33
2019-03-22T15:58:58.724Z,36.63
2019-03-22T16:01:28.226Z,32.95
2019-03-22T16:03:57.732Z,41.55
2019-03-22T16:06:27.174Z,30.15
2019-03-22T16:08:56.636Z,21.95
2019-03-22T16:11:26.092Z,20.65
2019-03-22T16:13:55.553Z,32.30
2019-03-22T16:16:25.047Z,28.25
2019-03-22T16:18:54.493Z,28.20
2019-03-22T16:21:24.055Z,27.13
2019-03-22T16:23:53.552Z,34.20
2019-03-22T16:26:23.066Z,62.78
2019-03-22T16:28:52.546Z,59.65
2019-03-22T16:31:22.019Z,63.38
2019-03-22T16:33:55.030Z,37.03
2019-03-22T16:36:24.562Z,35.17
2019-03-22T16:38:54.307Z,28.87
2019-03-22T16:41:23.811Z,31.02
2019-03-22T16:43:53.484Z,39.18
2019-03-22T16:46:22.992Z,34.38
2019-03-22T16:48:52.713Z,48.95
2019-03-22T16:51:22.258Z,67.30
2019-03-22T16:53:51.747Z,100.35
2019-03-22T16:56:21.353Z,36.48
2019-03-22T16:58:50.860Z,32.78
2019-03-22T17:01:20.308Z,32.17
2019-03-22T17:03:49.847Z,37.83
2019-03-22T17:06:19.315Z,32.33
2019-03-22T17:08:48.784Z,51.13
2019-03-22T17:11:18.260Z,41.42
2019-03-22T17:13:47.724Z,35.78
2019-03-22T17:16:17.167Z,37.65
2019-03-22T17:18:46.761Z,41.37
2019-03-22T17:21:16.334Z,51.10
2019-03-22T17:23:45.809Z,43.65
2019-03-22T17:26:15.219Z,49.98
2019-03-22T17:28:44.734Z,43.48
2019-03-22T17:31:14.274Z,39.50
2019-03-22T17:33:43.776Z,31.57
2019-03-22T17:36:13.281Z,29.75
2019-03-22T17:38:42.754Z,40.78
2019-03-22T17:41:12.273Z,43.78
2019-03-22T17:43:41.717Z,41.28
2019-03-22T17:46:11.400Z,63.17
2019-03-22T17:48:40.890Z,53.55
2019-03-22T17:51:12.020Z,65.15
2019-03-22T17:53:41.478Z,54.63
2019-03-22T17:56:10.949Z,41.42
2019-03-22T17:58:40.460Z,36.17
2019-03-22T18:01:09.901Z,40.73
2019-03-22T18:03:39.568Z,35.70
2019-03-22T18:06:09.019Z,37.05
2019-03-22T18:08:38.477Z,43.10
2019-03-22T18:11:06.932Z,42.50
2019-03-22T18:13:36.422Z,43.33
2019-03-22T18:16:04.991Z,34.55
2019-03-22T18:18:34.508Z,44.42
2019-03-22T18:21:04.015Z,39.53
2019-03-22T18:23:35.934Z,39.73
2019-03-22T18:26:04.815Z,40.52
2019-03-22T18:28:34.367Z,37.85
2019-03-22T18:31:03.848Z,32.65
2019-03-22T18:33:33.329Z,26.57
2019-03-22T18:36:02.828Z,27.07
2019-03-22T18:38:32.389Z,26.97
2019-03-22T18:41:02.543Z,25.00
2019-03-22T18:43:32.016Z,30.95
2019-03-22T18:46:01.527Z,25.23
2019-03-22T18:48:30.982Z,34.67
2019-03-22T18:51:00.497Z,30.55
2019-03-22T18:53:30.266Z,28.38
2019-03-22T18:55:59.778Z,31.10
2019-03-22T18:58:29.258Z,33.88
2019-03-22T19:00:58.719Z,35.95
2019-03-22T19:03:33.509Z,32.10
2019-03-22T19:06:06.330Z,30.02
2019-03-22T19:08:37.174Z,33.75
2019-03-22T19:11:06.783Z,34.78
2019-03-22T19:13:36.789Z,34.80
2019-03-22T19:16:06.239Z,36.23
2019-03-22T19:18:35.804Z,36.05
2019-03-22T19:21:05.446Z,39.50
2019-03-22T19:23:34.884Z,48.10
2019-03-22T19:26:04.334Z,56.50
2019-03-22T19:28:33.822Z,71.17
2019-03-22T19:31:03.289Z,85.47
2019-03-22T19:33:32.753Z,95.15
2019-03-22T19:36:02.185Z,81.45
2019-03-22T19:38:31.658Z,121.47
2019-03-22T19:41:01.095Z,60.80
2019-03-22T19:43:30.574Z,43.38
2019-03-22T19:46:00.014Z,59.58
2019-03-22T19:48:29.524Z,37.50
2019-03-22T19:50:58.895Z,46.95
2019-03-22T19:53:28.406Z,44.58
2019-03-22T19:55:57.871Z,48.48
2019-03-22T19:58:27.311Z,43.25
2019-03-22T20:00:56.767Z,54.85
2019-03-22T20:03:26.213Z,58.87
2019-03-22T20:05:55.748Z,54.48
2019-03-22T20:08:25.593Z,49.58
2019-03-22T20:10:55.242Z,56.55
2019-03-22T20:13:24.712Z,49.08
2019-03-22T20:15:54.151Z,49.80
2019-03-22T20:18:23.752Z,42.35
2019-03-22T20:20:53.324Z,48.28
2019-03-22T20:23:23.074Z,39.42
2019-03-22T20:25:52.502Z,34.27
2019-03-22T20:28:22.033Z,40.50
2019-03-22T20:30:51.530Z,40.30
2019-03-22T20:33:20.999Z,40.33
2019-03-22T20:35:50.472Z,36.28
2019-03-22T20:38:19.960Z,31.57
2019-03-22T20:40:49.392Z,29.85
2019-03-22T20:43:21.104Z,32.83
2019-03-22T20:45:50.094Z,32.35
2019-03-22T20:48:19.755Z,36.05
2019-03-22T20:50:49.224Z,33.95
2019-03-22T20:53:18.663Z,36.50
2019-03-22T20:55:48.265Z,37.90
2019-03-22T20:58:17.667Z,42.85
2019-03-22T21:00:47.102Z,41.83
2019-03-22T21:03:16.541Z,44.20
2019-03-22T21:05:45.995Z,49.60
2019-03-22T21:08:15.516Z,45.20
2019-03-22T21:10:44.975Z,49.53
2019-03-22T21:13:14.439Z,44.13
2019-03-22T21:15:43.892Z,42.80
2019-03-22T21:18:13.359Z,31.30
2019-03-22T21:20:42.796Z,31.75
2019-03-22T21:23:12.173Z,30.95
2019-03-22T21:25:41.591Z,30.80
2019-03-22T21:28:11.059Z,32.13
2019-03-22T21:30:40.477Z,29.87
2019-03-22T21:33:09.911Z,29.23
2019-03-22T21:35:39.354Z,32.63
2019-03-22T21:38:11.109Z,30.60
2019-03-22T21:40:39.988Z,30.12
2019-03-22T21:43:09.446Z,34.13
2019-03-22T21:45:38.940Z,36.55
2019-03-22T21:48:08.399Z,34.75
2019-03-22T21:50:37.920Z,28.92
2019-03-22T21:53:07.458Z,26.95
2019-03-22T21:55:36.913Z,31.20
2019-03-22T21:58:06.364Z,28.15
2019-03-22T22:00:35.847Z,27.95
2019-03-22T22:03:05.500Z,31.07
2019-03-22T22:05:34.968Z,27.42
2019-03-22T22:08:04.408Z,29.92
2019-03-22T22:10:33.861Z,25.70
2019-03-22T22:13:03.245Z,29.70
2019-03-22T22:15:32.771Z,26.60
2019-03-22T22:18:02.251Z,24.07
2019-03-22T22:20:31.725Z,24.60
2019-03-22T22:23:01.225Z,21.73
2019-03-22T22:25:30.612Z,26.68
2019-03-22T22:28:00.063Z,24.98
2019-03-22T22:30:29.523Z,22.70
2019-03-22T22:32:58.975Z,22.30
2019-03-22T22:35:28.480Z,33.18
2019-03-22T22:37:57.902Z,38.42
2019-03-22T22:40:27.345Z,34.25
2019-03-22T22:42:56.704Z,29.07
2019-03-22T22:45:26.119Z,26.40
2019-03-22T22:47:55.552Z,26.37
2019-03-22T22:50:24.992Z,29.57
2019-03-22T22:52:54.479Z,33.95
2019-03-22T22:55:23.901Z,29.57
2019-03-22T22:57:53.269Z,28.05
2019-03-22T23:00:23.997Z,31.85
2019-03-22T23:02:53.515Z,25.27
2019-03-22T23:05:23.020Z,33.75
2019-03-22T23:07:52.441Z,30.88
2019-03-22T23:10:21.820Z,30.15
2019-03-22T23:12:51.245Z,34.80
2019-03-22T23:15:20.699Z,28.42
2019-03-22T23:17:50.121Z,29.10
2019-03-22T23:20:19.592Z,28.35
2019-03-22T23:22:49.010Z,26.40
2019-03-22T23:25:18.448Z,28.20
2019-03-22T23:27:47.885Z,28.65
2019-03-22T23:30:17.317Z,29.23
2019-03-22T23:32:46.697Z,29.12
2019-03-22T23:35:16.166Z,25.27
2019-03-22T23:37:45.601Z,26.42
2019-03-22T23:40:15.235Z,24.43
2019-03-22T23:42:44.749Z,26.65
2019-03-22T23:45:14.182Z,26.27
2019-03-22T23:47:43.651Z,25.00
2019-03-22T23:50:13.249Z,25.80
2019-03-22T23:52:42.740Z,25.12
2019-03-22T23:55:12.674Z,25.70
2019-03-22T23:57:42.145Z,27.17
